createdAt,value
2022-10-10T00:02:33.122Z,77.01
2022-10-10T00:05:03.424Z,77.25
2022-10-10T00:07:33.832Z,77.27
2022-10-10T00:10:05.115Z,77.37
2022-10-10T00:12:35.674Z,77.42
2022-10-10T00:15:07.033Z,77.66
2022-10-10T00:17:37.445Z,77.25
2022-10-10T00:20:08.541Z,77.16
2022-10-10T00:22:39.180Z,77.43
2022-10-10T00:25:10.854Z,77.74
2022-10-10T00:27:41.428Z,77.53
2022-10-10T00:30:12.231Z,77.34
2022-10-10T00:32:42.654Z,77.37
2022-10-10T00:35:12.990Z,77.58
2022-10-10T00:37:43.371Z,77.29
2022-10-10T00:40:13.835Z,77.33
2022-10-10T00:42:44.518Z,77.76
2022-10-10T00:45:24.024Z,77.56
2022-10-10T00:48:00.157Z,77.75
2022-10-10T00:50:32.269Z,78.05
2022-10-10T00:53:05.041Z,77.93
2022-10-10T00:55:37.025Z,77.66
2022-10-10T00:58:08.922Z,77.55
2022-10-10T01:00:39.404Z,77.64
2022-10-10T01:03:09.804Z,77.64
2022-10-10T01:05:42.231Z,77.90
2022-10-10T01:08:12.981Z,77.84
2022-10-10T01:11:03.044Z,77.93
2022-10-10T01:13:45.678Z,78.06
2022-10-10T01:16:35.930Z,78.25
2022-10-10T01:19:42.787Z,77.87
2022-10-10T01:22:31.186Z,78.10
2022-10-10T01:25:04.733Z,78.37
2022-10-10T01:27:46.354Z,78.04
2022-10-10T01:30:19.819Z,77.94
2022-10-10T01:32:56.461Z,78.08
2022-10-10T01:35:47.083Z,78.38
2022-10-10T01:38:50.634Z,78.23
2022-10-10T01:41:26.813Z,78.16
2022-10-10T01:43:58.980Z,78.43
2022-10-10T01:46:29.334Z,78.56
2022-10-10T01:49:00.561Z,78.41
2022-10-10T01:51:51.893Z,78.63
2022-10-10T01:54:43.123Z,78.39
2022-10-10T01:57:28.400Z,78.06
2022-10-10T02:00:19.048Z,78.57
2022-10-10T02:02:58.091Z,78.57
2022-10-10T02:05:31.545Z,78.52
2022-10-10T02:08:07.485Z,78.37
2022-10-10T02:10:43.665Z,78.22
2022-10-10T02:13:16.428Z,78.62
2022-10-10T02:15:52.672Z,78.59
2022-10-10T02:18:26.151Z,78.62
2022-10-10T02:20:57.599Z,78.86
2022-10-10T02:23:28.566Z,78.79
2022-10-10T02:25:59.716Z,78.95
2022-10-10T02:28:53.014Z,79.29
2022-10-10T02:31:32.155Z,79.41
2022-10-10T02:34:14.424Z,79.17
2022-10-10T02:36:47.885Z,79.24
2022-10-10T02:39:20.627Z,79.22
2022-10-10T02:41:53.346Z,79.35
2022-10-10T02:44:25.624Z,79.25
2022-10-10T02:46:56.066Z,79.64
2022-10-10T02:49:31.641Z,79.47
2022-10-10T02:52:02.221Z,79.55
2022-10-10T02:54:33.283Z,79.70
2022-10-10T02:57:03.621Z,79.91
2022-10-10T02:59:33.949Z,79.70
2022-10-10T03:02:04.291Z,79.84
2022-10-10T03:04:36.139Z,79.90
2022-10-10T03:07:06.666Z,79.61
2022-10-10T03:09:37.077Z,79.77
2022-10-10T03:12:07.484Z,79.80
2022-10-10T03:14:37.917Z,79.85
2022-10-10T03:17:08.370Z,80.00
2022-10-10T03:19:39.012Z,80.02
2022-10-10T03:22:11.340Z,80.32
2022-10-10T03:24:41.640Z,80.45
2022-10-10T03:27:12.012Z,80.35
2022-10-10T03:29:42.386Z,80.61
2022-10-10T03:32:12.913Z,80.45
2022-10-10T03:34:43.200Z,80.35
2022-10-10T03:37:13.568Z,80.70
2022-10-10T03:39:43.943Z,80.81
2022-10-10T03:42:14.267Z,80.72
2022-10-10T03:44:44.621Z,81.13
2022-10-10T03:47:14.967Z,81.03
2022-10-10T03:49:45.295Z,80.99
2022-10-10T03:52:15.760Z,80.99
2022-10-10T03:54:46.142Z,81.12
2022-10-10T03:57:16.505Z,81.27
2022-10-10T03:59:46.897Z,81.11
2022-10-10T04:02:17.470Z,80.98
2022-10-10T04:04:48.070Z,81.12
2022-10-10T04:07:18.421Z,81.12
2022-10-10T04:09:48.774Z,80.98
2022-10-10T04:12:19.213Z,81.07
2022-10-10T04:14:49.606Z,81.17
2022-10-10T04:17:19.951Z,80.94
2022-10-10T04:19:50.328Z,81.11
2022-10-10T04:22:20.705Z,81.09
2022-10-10T04:24:51.123Z,80.85
2022-10-10T04:27:21.552Z,81.06
2022-10-10T04:29:52.043Z,80.78
2022-10-10T04:32:22.393Z,80.76
2022-10-10T04:34:52.816Z,81.01
2022-10-10T04:37:23.258Z,81.17
2022-10-10T04:39:53.728Z,80.70
2022-10-10T04:42:24.248Z,81.23
2022-10-10T04:44:54.595Z,81.31
2022-10-10T04:47:25.376Z,81.44
2022-10-10T04:49:55.837Z,81.65
2022-10-10T04:52:28.824Z,81.48
2022-10-10T04:54:59.738Z,81.72
2022-10-10T04:57:30.204Z,81.77
2022-10-10T05:00:00.668Z,81.88
2022-10-10T05:02:31.024Z,81.84
2022-10-10T05:05:01.362Z,81.50
2022-10-10T05:07:31.647Z,81.66
2022-10-10T05:10:02.435Z,81.52
2022-10-10T05:12:33.001Z,81.91
2022-10-10T05:15:03.428Z,81.58
2022-10-10T05:17:33.987Z,81.71
2022-10-10T05:20:05.121Z,81.61
2022-10-10T05:22:35.647Z,81.48
2022-10-10T05:25:06.771Z,81.42
2022-10-10T05:27:37.152Z,81.54
2022-10-10T05:30:08.089Z,81.51
2022-10-10T05:32:38.825Z,81.45
2022-10-10T05:35:10.004Z,81.26
2022-10-10T05:37:40.396Z,81.26
2022-10-10T05:40:11.433Z,81.38
2022-10-10T05:42:41.820Z,81.12
2022-10-10T05:45:12.289Z,80.85
2022-10-10T05:47:44.374Z,80.99
2022-10-10T05:50:32.828Z,81.05
2022-10-10T05:53:03.569Z,81.05
2022-10-10T05:55:35.433Z,81.38
2022-10-10T05:58:06.771Z,81.08
2022-10-10T06:00:37.344Z,80.88
2022-10-10T06:03:08.591Z,80.55
2022-10-10T06:05:39.057Z,80.93
2022-10-10T06:08:12.043Z,80.88
2022-10-10T06:10:44.936Z,80.75
2022-10-10T06:13:23.058Z,80.42
2022-10-10T06:15:52.166Z,80.74
2022-10-10T06:18:22.548Z,80.32
2022-10-10T06:20:53.090Z,80.33
2022-10-10T06:23:23.434Z,80.44
2022-10-10T06:25:56.430Z,80.06
2022-10-10T06:28:25.828Z,80.03
2022-10-10T06:30:57.719Z,80.14
2022-10-10T06:33:28.128Z,80.24
2022-10-10T06:35:58.992Z,80.22
2022-10-10T06:38:29.384Z,80.20
2022-10-10T06:41:04.433Z,80.08
2022-10-10T06:43:35.998Z,79.88
2022-10-10T06:46:06.542Z,80.32
2022-10-10T06:48:36.881Z,80.24
2022-10-10T06:51:10.531Z,79.89
2022-10-10T06:53:40.914Z,79.97
2022-10-10T06:56:15.010Z,79.63
2022-10-10T06:58:45.738Z,79.37
2022-10-10T07:01:21.541Z,79.24
2022-10-10T07:03:51.958Z,78.72
2022-10-10T07:06:22.800Z,78.76
2022-10-10T07:08:53.479Z,78.29
2022-10-10T07:11:24.487Z,78.00
2022-10-10T07:13:54.819Z,77.62
2022-10-10T07:16:25.957Z,77.57
2022-10-10T07:18:56.305Z,77.32
2022-10-10T07:21:27.715Z,77.68
2022-10-10T07:23:58.189Z,77.09
2022-10-10T07:26:30.230Z,77.30
2022-10-10T07:29:00.601Z,76.95
2022-10-10T07:31:50.033Z,76.75
2022-10-10T07:34:20.500Z,76.60
2022-10-10T07:36:51.057Z,76.62
2022-10-10T07:39:22.871Z,76.79
2022-10-10T07:41:53.509Z,76.54
2022-10-10T07:44:25.585Z,76.50
2022-10-10T07:46:56.066Z,76.18
2022-10-10T07:49:26.490Z,75.38
2022-10-10T07:51:58.894Z,76.96
2022-10-10T07:54:30.183Z,75.73
2022-10-10T07:57:00.564Z,74.16
2022-10-10T07:59:30.864Z,74.28
2022-10-10T08:02:01.451Z,74.50
2022-10-10T08:04:32.039Z,74.35
2022-10-10T08:07:02.471Z,74.52
2022-10-10T08:09:32.899Z,74.38
2022-10-10T08:12:03.364Z,74.30
2022-10-10T08:14:33.601Z,74.32
2022-10-10T08:17:03.960Z,74.53
2022-10-10T08:19:34.622Z,74.50
2022-10-10T08:22:05.441Z,74.55
2022-10-10T08:24:35.843Z,74.11
2022-10-10T08:27:06.164Z,73.88
2022-10-10T08:29:36.463Z,73.56
2022-10-10T08:32:06.785Z,73.20
2022-10-10T08:34:37.177Z,73.08
2022-10-10T08:37:07.598Z,72.54
2022-10-10T08:39:37.985Z,71.92
2022-10-10T08:42:10.107Z,71.70
2022-10-10T08:44:52.452Z,71.66
2022-10-10T08:47:47.627Z,70.96
2022-10-10T08:50:37.470Z,70.56
2022-10-10T08:53:36.933Z,70.24
2022-10-10T08:56:08.407Z,70.08
2022-10-10T08:58:41.508Z,69.96
2022-10-10T09:01:19.687Z,69.58
2022-10-10T09:03:53.667Z,68.75
2022-10-10T09:06:58.838Z,68.50
2022-10-10T09:09:44.730Z,68.42
2022-10-10T09:12:27.571Z,67.77
2022-10-10T09:15:03.782Z,67.06
2022-10-10T09:17:46.413Z,66.54
2022-10-10T09:20:28.758Z,65.29
2022-10-10T09:23:18.933Z,64.41
2022-10-10T09:25:58.435Z,63.62
2022-10-10T09:28:49.713Z,62.51
2022-10-10T09:31:25.999Z,59.61
2022-10-10T09:34:02.416Z,57.96
2022-10-10T09:36:36.926Z,56.86
2022-10-10T09:39:22.119Z,55.35
2022-10-10T09:42:01.181Z,55.49
2022-10-10T09:44:32.895Z,55.96
2022-10-10T09:47:03.302Z,55.52
2022-10-10T09:49:35.760Z,56.73
2022-10-10T09:52:21.342Z,57.42
2022-10-10T09:54:58.371Z,54.94
2022-10-10T09:57:40.306Z,52.72
2022-10-10T10:00:23.787Z,55.67
2022-10-10T10:03:12.926Z,56.52
2022-10-10T10:05:46.647Z,57.42
2022-10-10T10:08:22.797Z,58.61
2022-10-10T10:10:55.295Z,59.09
2022-10-10T10:13:37.762Z,60.27
2022-10-10T10:16:14.278Z,60.65
2022-10-10T10:18:47.306Z,59.80
2022-10-10T10:21:24.901Z,59.87
2022-10-10T10:23:58.827Z,60.42
2022-10-10T10:26:44.363Z,59.84
2022-10-10T10:29:30.010Z,59.27
2022-10-10T10:32:12.255Z,60.11
2022-10-10T10:35:07.669Z,60.38
2022-10-10T10:38:00.934Z,60.68
2022-10-10T10:40:40.339Z,61.16
2022-10-10T10:43:22.606Z,60.90
2022-10-10T10:46:22.178Z,60.68
2022-10-10T10:49:02.174Z,59.55
2022-10-10T10:51:47.585Z,59.09
2022-10-10T10:54:40.516Z,58.87
2022-10-10T10:57:45.372Z,58.13
2022-10-10T11:01:20.269Z,56.27
2022-10-10T11:03:27.861Z,53.41
2022-10-10T11:05:45.402Z,54.45
2022-10-10T11:08:19.229Z,54.49
2022-10-10T11:10:52.694Z,56.16
2022-10-10T11:13:26.189Z,56.91
2022-10-10T11:16:06.493Z,57.10
2022-10-10T11:18:37.572Z,56.09
2022-10-10T11:21:11.016Z,54.13
2022-10-10T11:23:50.679Z,52.66
2022-10-10T11:26:26.545Z,52.79
2022-10-10T11:29:02.766Z,52.74
2022-10-10T11:31:44.826Z,51.53
2022-10-10T11:34:18.215Z,49.68
2022-10-10T11:36:50.919Z,48.52
2022-10-10T11:39:30.162Z,49.75
2022-10-10T11:42:09.549Z,45.98
2022-10-10T11:44:42.958Z,42.35
2022-10-10T11:47:42.068Z,43.14
2022-10-10T11:50:33.913Z,43.58
2022-10-10T11:53:16.348Z,42.51
2022-10-10T11:56:02.052Z,41.62
2022-10-10T11:58:48.988Z,40.81
2022-10-10T12:01:28.078Z,44.35
2022-10-10T12:03:58.563Z,48.04
2022-10-10T12:06:32.006Z,50.34
2022-10-10T12:09:17.573Z,53.06
2022-10-10T12:11:50.940Z,54.54
2022-10-10T12:14:22.993Z,54.44
2022-10-10T12:16:53.564Z,55.32
2022-10-10T12:19:27.281Z,55.31
2022-10-10T12:22:10.156Z,55.55
2022-10-10T12:25:00.310Z,55.71
2022-10-10T12:27:45.222Z,56.02
2022-10-10T12:30:21.623Z,56.62
2022-10-10T12:32:54.587Z,56.88
2022-10-10T12:35:34.302Z,56.50
2022-10-10T12:38:10.638Z,56.45
2022-10-10T12:41:05.605Z,56.90
2022-10-10T12:43:45.602Z,57.01
2022-10-10T12:46:19.343Z,57.07
2022-10-10T12:49:04.813Z,57.13
2022-10-10T12:51:37.046Z,57.24
2022-10-10T12:54:08.437Z,57.18
2022-10-10T12:56:41.779Z,57.52
2022-10-10T12:59:21.203Z,57.51
2022-10-10T13:01:55.286Z,57.42
2022-10-10T13:04:28.330Z,57.94
2022-10-10T13:07:01.175Z,57.65
2022-10-10T13:09:35.708Z,57.79
2022-10-10T13:12:07.987Z,58.14
2022-10-10T13:14:44.429Z,58.70
2022-10-10T13:17:24.135Z,58.45
2022-10-10T13:19:55.948Z,58.76
2022-10-10T13:22:27.860Z,58.91
2022-10-10T13:25:00.532Z,58.66
2022-10-10T13:27:34.953Z,59.06
2022-10-10T13:30:07.871Z,58.70
2022-10-10T13:32:38.909Z,58.28
2022-10-10T13:35:16.067Z,59.03
2022-10-10T13:37:50.344Z,59.26
2022-10-10T13:40:21.605Z,59.63
2022-10-10T13:42:52.628Z,59.91
2022-10-10T13:45:31.906Z,59.79
2022-10-10T13:50:58.124Z,59.13
2022-10-10T13:53:33.179Z,58.84
2022-10-10T13:56:31.551Z,59.01
2022-10-10T13:59:07.685Z,59.52
2022-10-10T14:01:49.977Z,59.86
2022-10-10T14:04:31.994Z,60.00
2022-10-10T14:07:13.985Z,60.38
2022-10-10T14:09:53.868Z,60.37
2022-10-10T14:12:35.209Z,60.90
2022-10-10T14:15:07.542Z,60.92
2022-10-10T14:17:37.905Z,60.87
2022-10-10T14:20:11.288Z,61.15
2022-10-10T14:22:41.722Z,60.84
2022-10-10T14:25:12.038Z,60.90
2022-10-10T14:27:42.489Z,60.98
2022-10-10T14:30:15.013Z,60.86
2022-10-10T14:32:45.407Z,60.86
2022-10-10T14:35:15.979Z,61.40
2022-10-10T14:37:46.614Z,61.24
2022-10-10T14:40:22.714Z,61.60
2022-10-10T14:42:53.189Z,61.56
2022-10-10T14:45:23.627Z,62.19
2022-10-10T14:47:54.441Z,62.50
2022-10-10T14:50:27.886Z,62.20
2022-10-10T14:52:58.187Z,61.51
2022-10-10T14:55:28.617Z,62.15
2022-10-10T14:58:00.704Z,61.85
2022-10-10T15:00:31.116Z,62.51
2022-10-10T15:03:03.310Z,63.02
2022-10-10T15:05:33.675Z,62.12
2022-10-10T15:08:04.405Z,62.79
2022-10-10T15:10:35.579Z,62.93
2022-10-10T15:13:06.099Z,63.03
2022-10-10T15:15:36.519Z,62.84
2022-10-10T15:18:20.906Z,63.18
2022-10-10T15:20:39.306Z,63.53
2022-10-10T15:23:10.640Z,63.92
2022-10-10T15:25:44.574Z,64.62
2022-10-10T15:28:14.910Z,65.96
2022-10-10T15:30:48.186Z,64.70
2022-10-10T15:33:18.960Z,65.04
2022-10-10T15:36:08.920Z,65.24
2022-10-10T15:38:31.089Z,64.02
2022-10-10T15:41:04.244Z,64.13
2022-10-10T15:43:47.163Z,64.83
2022-10-10T15:46:17.560Z,65.28
2022-10-10T15:48:48.042Z,65.09
2022-10-10T15:51:18.958Z,65.33
2022-10-10T15:53:50.942Z,66.03
2022-10-10T15:56:21.245Z,65.92
2022-10-10T15:58:57.047Z,66.55
2022-10-10T16:01:28.504Z,66.26
2022-10-10T16:03:59.170Z,67.48
2022-10-10T16:06:29.746Z,66.69
2022-10-10T16:09:23.619Z,67.15
2022-10-10T16:11:35.701Z,67.69
2022-10-10T16:14:06.116Z,67.61
2022-10-10T16:16:36.621Z,67.91
2022-10-10T16:19:08.462Z,68.10
2022-10-10T16:21:38.912Z,68.39
2022-10-10T16:24:10.868Z,68.15
2022-10-10T16:26:41.484Z,68.20
2022-10-10T16:29:12.601Z,68.32
2022-10-10T16:31:43.314Z,68.67
2022-10-10T16:34:15.537Z,68.75
2022-10-10T16:36:45.875Z,68.95
2022-10-10T16:39:16.261Z,69.58
2022-10-10T16:41:48.447Z,69.82
2022-10-10T16:44:18.994Z,69.77
2022-10-10T16:46:49.516Z,70.22
2022-10-10T16:49:21.377Z,70.19
2022-10-10T16:51:51.872Z,70.34
2022-10-10T16:54:22.231Z,70.63
2022-10-10T16:56:52.510Z,70.63
2022-10-10T16:59:22.821Z,70.73
2022-10-10T17:01:53.252Z,70.93
2022-10-10T17:04:25.328Z,71.09
2022-10-10T17:06:55.857Z,71.13
2022-10-10T17:09:26.303Z,71.32
2022-10-10T17:11:56.890Z,71.37
2022-10-10T17:14:27.284Z,71.38
2022-10-10T17:17:13.925Z,72.27
2022-10-10T17:19:29.768Z,71.94
2022-10-10T17:22:00.618Z,71.97
2022-10-10T17:24:31.002Z,71.79
2022-10-10T17:27:01.569Z,72.39
2022-10-10T17:29:31.824Z,72.12
2022-10-10T17:32:06.215Z,72.49
2022-10-10T17:34:34.316Z,72.41
2022-10-10T17:37:05.133Z,72.90
2022-10-10T17:39:35.438Z,72.64
2022-10-10T17:42:06.158Z,72.56
2022-10-10T17:44:43.336Z,72.51
2022-10-10T17:47:08.670Z,72.79
2022-10-10T17:49:40.673Z,72.92
2022-10-10T17:52:11.011Z,73.12
2022-10-10T17:54:41.411Z,72.89
2022-10-10T17:57:11.821Z,73.07
2022-10-10T17:59:42.345Z,73.17
2022-10-10T18:02:20.201Z,73.59
2022-10-10T18:04:50.757Z,73.88
2022-10-10T18:07:21.334Z,74.09
2022-10-10T18:09:52.686Z,74.16
2022-10-10T18:12:23.105Z,74.47
2022-10-10T18:14:53.555Z,74.34
2022-10-10T18:17:24.060Z,74.09
2022-10-10T18:19:54.379Z,74.11
2022-10-10T18:22:24.840Z,74.62
2022-10-10T18:24:55.238Z,73.96
2022-10-10T18:27:26.841Z,74.69
2022-10-10T18:29:57.289Z,73.89
2022-10-10T18:32:27.775Z,75.04
2022-10-10T18:34:58.250Z,74.90
2022-10-10T18:37:28.676Z,75.53
2022-10-10T18:39:58.966Z,75.23
2022-10-10T18:42:29.353Z,75.06
2022-10-10T18:44:59.734Z,75.01
2022-10-10T18:47:30.222Z,74.95
2022-10-10T18:50:00.468Z,74.86
2022-10-10T18:52:30.879Z,74.61
2022-10-10T18:55:01.204Z,74.94
2022-10-10T18:57:31.621Z,74.69
2022-10-10T19:00:01.990Z,74.94
2022-10-10T19:39:26.296Z,76.45
2022-10-10T19:41:56.931Z,76.41
2022-10-10T19:44:27.255Z,76.44
2022-10-10T19:46:59.556Z,76.34
2022-10-10T19:49:30.926Z,76.22
2022-10-10T19:52:01.290Z,75.93
2022-10-10T19:54:31.637Z,75.75
2022-10-10T19:57:02.830Z,75.73
2022-10-10T19:59:33.556Z,75.58
2022-10-10T20:02:04.106Z,75.89
2022-10-10T20:04:34.733Z,76.12
2022-10-10T20:07:05.173Z,76.22
2022-10-10T20:09:35.580Z,76.35
2022-10-10T20:12:05.993Z,75.98
2022-10-10T20:14:36.550Z,75.98
2022-10-10T20:17:06.852Z,75.34
2022-10-10T20:19:37.214Z,74.81
2022-10-10T20:22:07.910Z,74.64
2022-10-10T20:24:38.349Z,74.85
2022-10-10T20:27:08.788Z,73.85
2022-10-10T20:29:39.443Z,73.96
2022-10-10T20:32:09.843Z,72.92
2022-10-10T20:34:40.409Z,72.90
2022-10-10T20:37:10.852Z,72.74
2022-10-10T20:39:41.303Z,72.59
2022-10-10T20:42:11.961Z,72.30
2022-10-10T20:44:42.382Z,71.71
2022-10-10T20:47:13.348Z,72.26
2022-10-10T20:49:43.752Z,72.42
2022-10-10T20:52:14.234Z,72.40
2022-10-10T20:54:44.630Z,72.60
2022-10-10T20:57:15.027Z,72.52
2022-10-10T20:59:45.402Z,72.95
2022-10-10T21:02:19.272Z,72.66
2022-10-10T21:04:47.744Z,72.88
2022-10-10T21:07:18.055Z,73.15
2022-10-10T21:09:51.207Z,73.21
2022-10-10T21:12:21.802Z,72.70
2022-10-10T21:14:52.133Z,73.57
2022-10-10T21:17:22.609Z,74.86
2022-10-10T21:19:53.171Z,75.08
2022-10-10T21:22:24.087Z,76.11
2022-10-10T21:24:54.636Z,76.14
2022-10-10T21:27:24.997Z,76.23
2022-10-10T21:29:55.376Z,76.28
2022-10-10T21:32:26.455Z,76.50
2022-10-10T21:34:58.118Z,75.97
2022-10-10T21:37:29.463Z,76.64
2022-10-10T21:39:59.856Z,76.88
2022-10-10T21:42:30.185Z,77.23
2022-10-10T21:45:00.496Z,77.44
2022-10-10T21:47:30.931Z,77.47
2022-10-10T21:50:01.480Z,78.21
2022-10-10T21:52:31.863Z,78.15
2022-10-10T21:55:02.259Z,78.52
2022-10-10T21:57:32.806Z,78.65
2022-10-10T22:00:03.186Z,79.26
2022-10-10T22:02:33.527Z,79.07
2022-10-10T22:05:03.914Z,79.25
2022-10-10T22:07:34.610Z,79.79
2022-10-10T22:10:07.230Z,79.96
2022-10-10T22:12:37.532Z,80.47
2022-10-10T22:15:08.723Z,80.04
2022-10-10T22:17:40.141Z,80.95
2022-10-10T22:20:12.244Z,81.10
2022-10-10T22:22:43.474Z,81.48
2022-10-10T22:25:16.880Z,81.76
2022-10-10T22:27:47.304Z,81.70
2022-10-10T22:30:17.671Z,82.11
2022-10-10T22:32:48.122Z,82.02
2022-10-10T22:35:18.624Z,81.63
2022-10-10T22:37:48.903Z,82.06
2022-10-10T22:40:21.101Z,81.19
2022-10-10T22:42:51.606Z,81.94
2022-10-10T22:45:22.765Z,82.20
2022-10-10T22:47:53.442Z,82.63
2022-10-10T22:50:23.864Z,82.97
2022-10-10T22:52:54.225Z,83.28
2022-10-10T22:55:24.871Z,83.03
2022-10-10T22:57:55.286Z,83.01
2022-10-10T23:00:25.743Z,82.78
2022-10-10T23:02:58.145Z,82.63
2022-10-10T23:05:28.617Z,82.18
2022-10-10T23:07:59.016Z,81.64
2022-10-10T23:10:29.640Z,81.76
2022-10-10T23:13:00.033Z,81.71
2022-10-10T23:15:30.476Z,81.42
2022-10-10T23:18:00.887Z,81.41
2022-10-10T23:20:31.354Z,81.41
2022-10-10T23:23:01.805Z,81.68
2022-10-10T23:25:32.581Z,81.49
2022-10-10T23:28:02.957Z,81.28
2022-10-10T23:30:33.409Z,80.90
2022-10-10T23:33:03.847Z,80.45
2022-10-10T23:35:35.012Z,80.40
2022-10-10T23:38:05.455Z,79.86
2022-10-10T23:40:36.123Z,79.81
2022-10-10T23:43:07.345Z,79.21
2022-10-10T23:45:40.830Z,79.16
2022-10-10T23:48:11.177Z,79.17
2022-10-10T23:50:41.505Z,79.12
2022-10-10T23:53:12.543Z,79.32
2022-10-10T23:55:43.066Z,79.07
2022-10-10T23:58:13.372Z,79.26
